createdAt,value
2022-10-16T00:01:54.307Z,96836.03
2022-10-16T00:04:20.707Z,96842.41
2022-10-16T00:06:47.166Z,96848.59
2022-10-16T00:09:14.626Z,96839.31
2022-10-16T00:11:41.650Z,96848.16
2022-10-16T00:14:12.100Z,96837.81
2022-10-16T00:16:38.899Z,96854.66
2022-10-16T00:19:06.144Z,96867.69
2022-10-16T00:21:34.400Z,96865.28
2022-10-16T00:24:06.887Z,96865.66
2022-10-16T00:26:37.511Z,96858.09
2022-10-16T00:29:04.384Z,96865.22
2022-10-16T00:31:31.301Z,96858.16
2022-10-16T00:33:57.770Z,96878.19
2022-10-16T00:36:25.762Z,96869.38
2022-10-16T00:38:55.563Z,96863.00
2022-10-16T00:41:23.960Z,96876.19
2022-10-16T00:44:02.088Z,96865.88
2022-10-16T00:46:34.373Z,96873.81
2022-10-16T00:49:08.747Z,96864.56
2022-10-16T00:51:44.236Z,96849.53
2022-10-16T00:54:21.140Z,96862.91
2022-10-16T00:56:48.075Z,96856.19
2022-10-16T00:59:23.741Z,96865.38
2022-10-16T01:01:50.154Z,96862.56
2022-10-16T01:04:16.635Z,96870.69
2022-10-16T01:06:55.155Z,96880.59
2022-10-16T01:09:27.728Z,96885.06
2022-10-16T01:12:15.199Z,96884.38
2022-10-16T01:14:49.449Z,96872.44
2022-10-16T01:17:24.506Z,96844.50
2022-10-16T01:20:07.760Z,96868.47
2022-10-16T01:23:09.229Z,96892.53
2022-10-16T01:26:14.293Z,96901.19
2022-10-16T01:28:51.208Z,96897.63
2022-10-16T01:31:21.001Z,96899.13
2022-10-16T01:33:57.165Z,96896.28
2022-10-16T01:36:30.919Z,96886.34
2022-10-16T01:39:02.085Z,96898.06
2022-10-16T01:41:37.169Z,96914.78
2022-10-16T01:44:09.175Z,96915.81
2022-10-16T01:46:40.193Z,96920.13
2022-10-16T01:49:07.277Z,96928.63
2022-10-16T01:51:35.915Z,96937.88
2022-10-16T01:54:04.064Z,96918.31
2022-10-16T01:56:31.620Z,96933.09
2022-10-16T01:59:26.428Z,96931.53
2022-10-16T02:02:00.769Z,96932.28
2022-10-16T02:04:34.394Z,96932.34
2022-10-16T02:07:00.771Z,96943.44
2022-10-16T02:09:27.431Z,96912.34
2022-10-16T02:11:57.299Z,96931.06
2022-10-16T02:14:25.674Z,96945.06
2022-10-16T02:16:52.361Z,96924.09
2022-10-16T02:19:21.326Z,96938.22
2022-10-16T02:21:55.885Z,96957.31
2022-10-16T02:24:34.554Z,96957.06
2022-10-16T02:27:10.263Z,96961.63
2022-10-16T02:29:42.091Z,96953.72
2022-10-16T02:32:11.326Z,96930.91
2022-10-16T02:34:38.938Z,96941.25
2022-10-16T02:37:06.458Z,96915.22
2022-10-16T02:39:33.516Z,96924.06
2022-10-16T02:42:00.262Z,96912.66
2022-10-16T02:44:26.633Z,96919.56
2022-10-16T02:46:53.122Z,96901.44
2022-10-16T02:49:19.672Z,96893.00
2022-10-16T02:51:46.067Z,96927.34
2022-10-16T02:54:12.790Z,96914.47
2022-10-16T02:56:39.919Z,96909.28
2022-10-16T02:59:06.339Z,96905.88
2022-10-16T03:01:33.155Z,96917.72
2022-10-16T03:03:59.619Z,96899.94
2022-10-16T03:06:26.026Z,96908.84
2022-10-16T03:08:52.631Z,96917.13
2022-10-16T03:11:19.020Z,96933.47
2022-10-16T03:13:45.395Z,96927.41
2022-10-16T03:16:11.860Z,96939.31
2022-10-16T03:18:38.277Z,96928.75
2022-10-16T03:21:04.689Z,96967.94
2022-10-16T03:25:57.478Z,96952.78
2022-10-16T03:28:23.899Z,96933.84
2022-10-16T03:30:50.343Z,96937.22
2022-10-16T03:33:17.215Z,96941.53
2022-10-16T03:35:43.663Z,96943.75
2022-10-16T03:38:10.033Z,96955.00
2022-10-16T03:40:36.605Z,96965.28
2022-10-16T03:43:03.221Z,96953.81
2022-10-16T03:45:29.708Z,96972.47
2022-10-16T03:47:56.132Z,96968.31
2022-10-16T03:50:22.524Z,96956.81
2022-10-16T03:52:48.879Z,96961.97
2022-10-16T03:55:15.335Z,96952.34
2022-10-16T03:57:41.730Z,96953.91
2022-10-16T04:00:08.749Z,96965.22
2022-10-16T04:02:35.199Z,96989.66
2022-10-16T04:05:01.803Z,96993.16
2022-10-16T04:07:28.367Z,97001.16
2022-10-16T04:09:55.083Z,96999.53
2022-10-16T04:12:21.448Z,97003.66
2022-10-16T04:14:47.916Z,96986.47
2022-10-16T04:17:14.341Z,97005.19
2022-10-16T04:19:40.746Z,97000.13
2022-10-16T04:22:07.255Z,97002.34
2022-10-16T04:24:33.699Z,97010.94
2022-10-16T04:27:00.121Z,97020.19
2022-10-16T04:29:26.547Z,97018.94
2022-10-16T04:31:52.902Z,97016.59
2022-10-16T04:34:19.760Z,97026.66
2022-10-16T04:36:49.136Z,97032.66
2022-10-16T04:39:15.887Z,97033.06
2022-10-16T04:41:42.476Z,97040.84
2022-10-16T04:44:09.206Z,97022.25
2022-10-16T04:46:35.611Z,97040.06
2022-10-16T04:49:01.991Z,97055.63
2022-10-16T04:51:29.093Z,97055.66
2022-10-16T04:53:56.073Z,97080.44
2022-10-16T04:56:22.923Z,97076.59
2022-10-16T04:58:49.383Z,97071.28
2022-10-16T05:01:15.736Z,97081.88
2022-10-16T05:03:42.139Z,97074.88
2022-10-16T05:06:08.764Z,97082.69
2022-10-16T05:08:35.356Z,97078.19
2022-10-16T05:11:02.515Z,97089.47
2022-10-16T05:13:28.920Z,97090.88
2022-10-16T05:15:55.322Z,97079.44
2022-10-16T05:18:21.753Z,97081.88
2022-10-16T05:20:48.174Z,97099.06
2022-10-16T05:23:14.591Z,97080.19
2022-10-16T05:25:40.998Z,97042.91
2022-10-16T05:28:07.434Z,97017.75
2022-10-16T05:30:33.924Z,97062.66
2022-10-16T05:33:00.315Z,97029.94
2022-10-16T05:35:26.765Z,97038.53
2022-10-16T05:37:53.562Z,97035.09
2022-10-16T05:40:20.007Z,97054.56
2022-10-16T05:42:46.606Z,97050.25
2022-10-16T05:45:13.477Z,97061.72
2022-10-16T05:47:40.506Z,97046.00
2022-10-16T05:50:07.491Z,97051.66
2022-10-16T05:52:33.843Z,97060.72
2022-10-16T05:55:00.236Z,97059.50
2022-10-16T05:57:26.972Z,97049.69
2022-10-16T05:59:53.597Z,97062.31
2022-10-16T06:02:20.079Z,97069.75
2022-10-16T06:04:46.450Z,97071.41
2022-10-16T06:07:13.046Z,97081.03
2022-10-16T06:09:40.036Z,97085.75
2022-10-16T06:12:06.435Z,97081.47
2022-10-16T06:14:33.287Z,97044.13
2022-10-16T06:16:59.828Z,97078.84
2022-10-16T06:19:26.249Z,97083.75
2022-10-16T06:21:52.736Z,97096.84
2022-10-16T06:24:19.150Z,97095.59
2022-10-16T06:26:45.664Z,97105.00
2022-10-16T06:29:12.240Z,97109.91
2022-10-16T06:31:38.691Z,97121.31
2022-10-16T06:34:07.207Z,97120.97
2022-10-16T06:36:33.602Z,97128.72
2022-10-16T06:38:59.999Z,97113.97
2022-10-16T06:41:26.371Z,97096.00
2022-10-16T06:43:53.296Z,97100.03
2022-10-16T06:46:22.695Z,97102.50
2022-10-16T06:48:49.585Z,97107.16
2022-10-16T06:51:21.645Z,97116.66
2022-10-16T06:54:06.391Z,97125.22
2022-10-16T06:56:34.208Z,97111.81
2022-10-16T06:59:01.477Z,97102.16
2022-10-16T07:01:28.535Z,97087.75
2022-10-16T07:03:54.968Z,97085.25
2022-10-16T07:06:23.510Z,97055.34
2022-10-16T07:08:50.480Z,97016.25
2022-10-16T07:11:19.596Z,96981.63
2022-10-16T07:13:51.026Z,97009.63
2022-10-16T07:16:27.427Z,97092.84
2022-10-16T07:18:59.343Z,97164.16
2022-10-16T07:21:28.498Z,97200.56
2022-10-16T07:23:57.164Z,97221.78
2022-10-16T07:26:25.241Z,97276.34
2022-10-16T07:28:51.852Z,97352.53
2022-10-16T07:31:19.777Z,97387.34
2022-10-16T07:33:48.844Z,97386.34
2022-10-16T07:36:17.690Z,97416.47
2022-10-16T07:38:44.955Z,97431.06
2022-10-16T07:41:13.723Z,97441.66
2022-10-16T07:43:40.599Z,97437.91
2022-10-16T07:46:07.289Z,97438.13
2022-10-16T07:48:35.337Z,97434.28
2022-10-16T07:51:03.952Z,97435.44
2022-10-16T07:53:30.771Z,97450.22
2022-10-16T07:56:01.874Z,97442.44
2022-10-16T07:58:29.239Z,97454.31
2022-10-16T08:00:56.836Z,97421.94
2022-10-16T08:03:24.198Z,97411.19
2022-10-16T08:05:51.121Z,97449.72
2022-10-16T08:08:19.382Z,97463.41
2022-10-16T08:10:46.387Z,97487.97
2022-10-16T08:13:15.725Z,97468.22
2022-10-16T08:15:43.383Z,97467.91
2022-10-16T08:18:10.919Z,97454.56
2022-10-16T08:20:37.349Z,97433.09
2022-10-16T08:23:04.101Z,97439.13
2022-10-16T08:25:30.994Z,97400.94
2022-10-16T08:27:57.411Z,97424.53
2022-10-16T08:30:25.116Z,97461.81
2022-10-16T08:32:51.827Z,97443.91
2022-10-16T08:35:18.306Z,97450.81
2022-10-16T08:37:44.981Z,97468.66
2022-10-16T08:40:21.789Z,97449.22
2022-10-16T08:42:56.599Z,97462.72
2022-10-16T08:45:28.663Z,97482.94
2022-10-16T08:48:18.262Z,97491.00
2022-10-16T08:50:45.549Z,97481.31
2022-10-16T08:53:19.452Z,97455.47
2022-10-16T08:55:53.624Z,97415.09
2022-10-16T08:58:27.380Z,97388.63
2022-10-16T09:01:00.953Z,97364.16
2022-10-16T09:03:36.149Z,97334.72
2022-10-16T09:06:37.332Z,97312.06
2022-10-16T09:09:12.970Z,97401.34
2022-10-16T09:11:49.540Z,97425.66
2022-10-16T09:14:37.499Z,97449.31
2022-10-16T09:17:29.227Z,97454.63
2022-10-16T09:20:14.591Z,97437.13
2022-10-16T09:22:41.466Z,97461.81
2022-10-16T09:25:15.483Z,97504.03
2022-10-16T09:27:45.265Z,97497.50
2022-10-16T09:30:18.152Z,97662.84
2022-10-16T09:32:46.739Z,97789.59
2022-10-16T09:35:17.854Z,97827.47
2022-10-16T09:37:46.935Z,97780.00
2022-10-16T09:40:25.366Z,97749.88
2022-10-16T09:43:12.672Z,97777.69
2022-10-16T09:45:39.603Z,97720.69
2022-10-16T09:48:14.303Z,97570.69
2022-10-16T09:50:40.756Z,97467.19
2022-10-16T09:53:12.953Z,97373.22
2022-10-16T09:55:50.359Z,97367.59
2022-10-16T09:58:16.795Z,97373.78
2022-10-16T10:00:52.006Z,97520.81
2022-10-16T10:03:40.228Z,97922.84
2022-10-16T10:06:18.698Z,98176.22
2022-10-16T10:08:55.145Z,98275.53
2022-10-16T10:12:00.620Z,98329.09
2022-10-16T10:14:37.366Z,98437.94
2022-10-16T10:17:12.375Z,98535.13
2022-10-16T10:19:59.019Z,98539.66
2022-10-16T10:22:40.081Z,98596.88
2022-10-16T10:25:35.034Z,98589.75
2022-10-16T10:28:10.488Z,98634.06
2022-10-16T10:31:21.520Z,98636.75
2022-10-16T10:33:50.114Z,98638.16
2022-10-16T10:36:26.765Z,98580.81
2022-10-16T10:38:59.884Z,98558.34
2022-10-16T10:41:31.721Z,98574.13
2022-10-16T10:44:04.579Z,98559.03
2022-10-16T10:46:47.157Z,98610.56
2022-10-16T10:49:28.437Z,98568.13
2022-10-16T10:52:11.842Z,98635.41
2022-10-16T10:55:07.264Z,98664.78
2022-10-16T10:58:16.259Z,98653.94
2022-10-16T11:00:55.556Z,98666.56
2022-10-16T11:03:40.374Z,98670.06
2022-10-16T11:06:12.022Z,98711.50
2022-10-16T11:08:48.247Z,98755.44
2022-10-16T11:11:41.788Z,98748.47
2022-10-16T11:14:27.102Z,98734.47
2022-10-16T11:16:58.265Z,98718.00
2022-10-16T11:20:01.916Z,98750.22
2022-10-16T11:22:49.511Z,98733.44
2022-10-16T11:25:17.778Z,98750.41
2022-10-16T11:27:51.947Z,98791.66
2022-10-16T11:30:28.330Z,98778.84
2022-10-16T11:33:09.932Z,98832.75
2022-10-16T11:35:54.119Z,98874.97
2022-10-16T11:38:46.261Z,98980.13
2022-10-16T11:41:22.649Z,99015.28
2022-10-16T11:44:20.302Z,99010.94
2022-10-16T11:47:24.380Z,99007.41
2022-10-16T11:49:48.683Z,99044.41
2022-10-16T11:52:26.527Z,98987.56
2022-10-16T11:55:00.421Z,99053.25
2022-10-16T11:57:40.311Z,99039.16
2022-10-16T12:00:18.617Z,99020.88
2022-10-16T12:02:58.576Z,99028.44
2022-10-16T12:05:36.149Z,99030.28
2022-10-16T12:08:14.380Z,99043.41
2022-10-16T12:10:43.346Z,99056.25
2022-10-16T12:13:31.692Z,99060.44
2022-10-16T12:16:13.231Z,99061.00
2022-10-16T12:18:44.593Z,99055.84
2022-10-16T12:21:14.457Z,99080.22
2022-10-16T12:23:56.281Z,99104.16
2022-10-16T12:26:46.696Z,99096.44
2022-10-16T12:29:29.812Z,99069.88
2022-10-16T12:31:58.333Z,99062.22
2022-10-16T12:34:27.989Z,99048.91
2022-10-16T12:36:55.819Z,99028.63
2022-10-16T12:39:26.160Z,98973.19
2022-10-16T12:42:20.414Z,98985.78
2022-10-16T12:44:47.054Z,98971.38
2022-10-16T12:47:41.278Z,98939.25
2022-10-16T12:50:24.598Z,98919.47
2022-10-16T12:52:51.027Z,98868.78
2022-10-16T12:55:19.758Z,98905.19
2022-10-16T12:58:04.660Z,98902.53
2022-10-16T13:01:24.422Z,98917.84
2022-10-16T13:04:07.203Z,98923.94
2022-10-16T13:06:39.784Z,98912.81
2022-10-16T13:09:13.575Z,98899.38
2022-10-16T13:12:07.254Z,98902.69
2022-10-16T13:17:30.383Z,98876.63
2022-10-16T13:20:27.803Z,98816.22
2022-10-16T13:22:57.631Z,98783.84
2022-10-16T13:25:56.130Z,98777.44
2022-10-16T13:28:30.714Z,98781.03
2022-10-16T13:31:00.226Z,98790.97
2022-10-16T13:33:37.630Z,98816.09
2022-10-16T13:36:05.113Z,98805.72
2022-10-16T13:38:34.557Z,98805.13
2022-10-16T13:41:18.886Z,98793.47
2022-10-16T13:43:49.740Z,98796.78
2022-10-16T13:46:21.914Z,98782.19
2022-10-16T13:49:02.660Z,98786.31
2022-10-16T13:51:30.471Z,98773.00
2022-10-16T13:54:00.539Z,98775.97
2022-10-16T13:56:30.338Z,98804.69
2022-10-16T13:59:05.549Z,98800.25
2022-10-16T14:01:44.329Z,98774.16
2022-10-16T14:04:14.237Z,98729.91
2022-10-16T14:06:49.913Z,98752.22
2022-10-16T14:09:36.261Z,98741.69
2022-10-16T14:12:09.792Z,98764.50
2022-10-16T14:14:44.953Z,98755.09
2022-10-16T14:17:22.983Z,98767.84
2022-10-16T14:19:55.423Z,98779.47
2022-10-16T14:22:31.964Z,98775.16
2022-10-16T14:24:59.016Z,98767.94
2022-10-16T14:27:38.106Z,98740.25
2022-10-16T14:30:23.084Z,98743.75
2022-10-16T14:33:07.778Z,98736.91
2022-10-16T14:35:35.475Z,98758.22
2022-10-16T14:38:04.691Z,98736.94
2022-10-16T14:40:34.128Z,98708.41
2022-10-16T14:43:02.596Z,98742.09
2022-10-16T14:45:33.697Z,98740.66
2022-10-16T14:48:03.744Z,98676.41
2022-10-16T14:50:30.322Z,98693.94
2022-10-16T14:52:57.061Z,98695.63
2022-10-16T14:57:51.240Z,98649.78
2022-10-16T15:00:24.237Z,98663.38
2022-10-16T15:02:51.971Z,98651.44
2022-10-16T15:05:24.572Z,98628.31
2022-10-16T15:07:51.610Z,98644.81
2022-10-16T15:10:19.006Z,98656.41
2022-10-16T15:12:45.717Z,98629.09
2022-10-16T15:15:24.380Z,98641.09
2022-10-16T15:17:56.890Z,98631.81
2022-10-16T15:20:25.368Z,98629.31
2022-10-16T15:22:52.263Z,98600.44
2022-10-16T15:25:40.580Z,98579.56
2022-10-16T15:28:07.908Z,98575.69
2022-10-16T15:30:34.592Z,98557.72
2022-10-16T15:33:01.641Z,98546.56
2022-10-16T15:35:28.427Z,98547.38
2022-10-16T15:37:55.155Z,98519.97
2022-10-16T15:40:22.460Z,98501.16
2022-10-16T15:42:48.917Z,98439.72
2022-10-16T15:45:16.964Z,98473.94
2022-10-16T15:47:45.753Z,98484.66
2022-10-16T15:50:14.885Z,98464.06
2022-10-16T15:52:42.176Z,98452.94
2022-10-16T15:55:10.630Z,98433.72
2022-10-16T15:57:40.467Z,98426.53
2022-10-16T16:00:15.638Z,98412.72
2022-10-16T16:02:43.777Z,98404.25
2022-10-16T16:05:11.647Z,98398.47
2022-10-16T16:07:39.818Z,98379.94
2022-10-16T16:10:09.710Z,98384.88
2022-10-16T16:12:36.620Z,98377.03
2022-10-16T16:15:05.637Z,98358.50
2022-10-16T16:17:33.395Z,98321.78
2022-10-16T16:20:00.100Z,98322.25
2022-10-16T16:22:27.208Z,98291.50
2022-10-16T16:24:53.752Z,98286.16
2022-10-16T16:27:20.891Z,98282.66
2022-10-16T16:29:48.610Z,98278.53
2022-10-16T16:32:15.537Z,98263.31
2022-10-16T16:34:42.053Z,98228.72
2022-10-16T16:37:08.939Z,98212.22
2022-10-16T16:39:35.630Z,98217.81
2022-10-16T16:42:03.893Z,98199.88
2022-10-16T16:44:30.637Z,98210.16
2022-10-16T16:46:57.115Z,98192.66
2022-10-16T16:49:23.627Z,98156.25
2022-10-16T16:51:50.255Z,98109.09
2022-10-16T16:54:16.757Z,98050.66
2022-10-16T16:56:46.127Z,98015.94
2022-10-16T16:59:18.702Z,98001.09
2022-10-16T17:01:45.529Z,97983.44
2022-10-16T17:04:13.168Z,97962.22
2022-10-16T17:06:41.286Z,97929.53
2022-10-16T17:09:08.407Z,97872.84
2022-10-16T17:11:35.234Z,97800.94
2022-10-16T17:14:02.660Z,97767.69
2022-10-16T17:16:35.827Z,97579.13
2022-10-16T17:19:04.404Z,97536.53
2022-10-16T17:21:33.081Z,97518.97
2022-10-16T17:24:00.955Z,97339.88
2022-10-16T17:26:28.409Z,97314.00
2022-10-16T17:28:57.628Z,97299.41
2022-10-16T17:31:27.269Z,97323.75
2022-10-16T17:33:53.698Z,97385.25
2022-10-16T17:36:21.767Z,97390.16
2022-10-16T17:38:48.801Z,97402.94
2022-10-16T17:41:21.143Z,97413.41
2022-10-16T17:43:47.866Z,97392.38
2022-10-16T17:46:17.331Z,97415.28
2022-10-16T17:48:47.118Z,97422.88
2022-10-16T17:51:16.130Z,97427.28
2022-10-16T17:53:43.385Z,97442.06
2022-10-16T17:56:12.840Z,97454.06
2022-10-16T17:58:39.662Z,97454.31
2022-10-16T18:01:18.202Z,97444.44
2022-10-16T18:03:44.637Z,97438.13
2022-10-16T18:06:13.464Z,97441.22
2022-10-16T18:08:39.835Z,97452.94
2022-10-16T18:11:06.399Z,97476.34
2022-10-16T18:13:33.641Z,97402.66
2022-10-16T18:16:05.725Z,97446.84
2022-10-16T18:18:32.891Z,97450.56
2022-10-16T18:21:00.377Z,97448.13
2022-10-16T18:23:28.165Z,97443.25
2022-10-16T18:25:54.868Z,97427.25
2022-10-16T18:28:21.416Z,97428.47
2022-10-16T18:31:03.220Z,97415.34
2022-10-16T18:33:32.177Z,97399.97
2022-10-16T18:36:08.183Z,97421.31
2022-10-16T18:38:35.820Z,97424.38
2022-10-16T18:41:05.465Z,97446.56
2022-10-16T18:43:33.465Z,97419.94
2022-10-16T18:46:02.669Z,97409.28
2022-10-16T18:48:30.580Z,97412.72
2022-10-16T18:51:13.925Z,97397.75
2022-10-16T18:53:42.293Z,97394.06
2022-10-16T18:56:08.859Z,97409.28
2022-10-16T18:58:36.384Z,97372.38
2022-10-16T19:01:04.987Z,97390.41
2022-10-16T19:03:31.830Z,97386.72
2022-10-16T19:06:03.741Z,97363.38
2022-10-16T19:08:33.855Z,97385.91
2022-10-16T19:11:07.952Z,97372.44
2022-10-16T19:13:34.767Z,97368.13
2022-10-16T19:16:19.481Z,97366.66
2022-10-16T19:18:48.362Z,97366.91
2022-10-16T19:21:15.405Z,97378.38
2022-10-16T19:23:42.357Z,97369.97
2022-10-16T19:26:14.426Z,97365.28
2022-10-16T19:28:41.966Z,97370.78
2022-10-16T19:31:11.686Z,97381.47
2022-10-16T19:33:38.829Z,97386.59
2022-10-16T19:36:18.686Z,97373.28
2022-10-16T19:38:46.784Z,97369.81
2022-10-16T19:41:17.724Z,97367.13
2022-10-16T19:43:45.231Z,97353.19
2022-10-16T19:46:18.344Z,97351.16
2022-10-16T19:48:46.097Z,97360.16
2022-10-16T19:51:16.327Z,97354.03
2022-10-16T19:53:43.132Z,97344.19
2022-10-16T19:56:18.150Z,97334.97
2022-10-16T19:58:45.757Z,97340.50
2022-10-16T20:01:13.141Z,97329.22
2022-10-16T20:03:40.364Z,97320.22
2022-10-16T20:06:08.669Z,97324.53
2022-10-16T20:08:36.739Z,97313.06
2022-10-16T20:11:04.616Z,97342.53
2022-10-16T20:13:32.151Z,97319.41
2022-10-16T20:15:58.792Z,97346.66
2022-10-16T20:18:25.218Z,97353.19
2022-10-16T20:20:52.838Z,97369.56
2022-10-16T20:23:19.743Z,97384.13
2022-10-16T20:25:46.178Z,97368.13
2022-10-16T20:28:15.646Z,97346.22
2022-10-16T20:30:44.235Z,97367.13
2022-10-16T20:33:11.614Z,97359.16
2022-10-16T20:35:41.294Z,97342.94
2022-10-16T20:38:07.904Z,97357.31
2022-10-16T20:40:36.328Z,97341.34
2022-10-16T20:43:03.416Z,97346.22
2022-10-16T20:45:30.583Z,97330.88
2022-10-16T20:47:57.542Z,97352.75
2022-10-16T20:50:24.343Z,97331.06
2022-10-16T20:52:50.868Z,97344.56
2022-10-16T20:55:18.135Z,97340.47
2022-10-16T20:57:44.567Z,97332.06
2022-10-16T21:00:11.857Z,97340.06
2022-10-16T21:02:38.263Z,97349.88
2022-10-16T21:05:05.103Z,97354.97
2022-10-16T21:07:31.659Z,97352.34
2022-10-16T21:09:58.843Z,97364.19
2022-10-16T21:12:26.489Z,97376.28
2022-10-16T21:15:13.489Z,97383.81
2022-10-16T21:17:39.924Z,97371.97
2022-10-16T21:20:06.678Z,97336.34
2022-10-16T21:22:33.049Z,97393.63
2022-10-16T21:24:59.669Z,97392.81
2022-10-16T21:27:26.269Z,97403.00
2022-10-16T21:29:54.231Z,97404.81
2022-10-16T21:32:23.590Z,97426.22
2022-10-16T21:34:49.989Z,97422.31
2022-10-16T21:37:16.425Z,97422.72
2022-10-16T21:39:42.889Z,97422.50
2022-10-16T21:42:09.419Z,97401.63
2022-10-16T21:44:35.933Z,97403.28
2022-10-16T21:47:02.486Z,97402.91
2022-10-16T21:49:29.094Z,97394.31
2022-10-16T21:51:55.620Z,97390.03
2022-10-16T21:54:23.970Z,97386.13
2022-10-16T21:56:52.302Z,97383.22
2022-10-16T21:59:18.894Z,97391.22
2022-10-16T22:01:45.707Z,97387.34
2022-10-16T22:04:13.811Z,97398.75
2022-10-16T22:06:40.275Z,97375.84
2022-10-16T22:09:07.115Z,97382.59
2022-10-16T22:11:38.749Z,97407.75
2022-10-16T22:14:15.326Z,97403.22
2022-10-16T22:16:42.195Z,97392.59
2022-10-16T22:19:09.649Z,97413.47
2022-10-16T22:21:40.526Z,97425.25
2022-10-16T22:24:08.291Z,97427.22
2022-10-16T22:26:36.145Z,97441.47
2022-10-16T22:29:02.687Z,97420.63
2022-10-16T22:31:29.274Z,97445.84
2022-10-16T22:34:01.022Z,97437.63
2022-10-16T22:36:28.061Z,97427.63
2022-10-16T22:38:55.059Z,97427.03
2022-10-16T22:41:21.674Z,97417.63
2022-10-16T22:43:49.309Z,97416.41
2022-10-16T22:46:27.443Z,97402.75
2022-10-16T22:48:55.769Z,97416.31
2022-10-16T22:51:23.535Z,97409.72
2022-10-16T22:53:50.781Z,97408.88
2022-10-16T22:56:19.734Z,97395.34
2022-10-16T22:58:46.675Z,97374.38
2022-10-16T23:01:19.942Z,97378.53
2022-10-16T23:03:46.487Z,97364.97
2022-10-16T23:06:13.216Z,97349.22
2022-10-16T23:08:39.773Z,97351.63
2022-10-16T23:11:11.539Z,97340.63
2022-10-16T23:13:39.106Z,97317.00
2022-10-16T23:16:07.205Z,97323.13
2022-10-16T23:18:37.273Z,97321.69
2022-10-16T23:21:09.345Z,97308.03
2022-10-16T23:23:36.977Z,97280.81
2022-10-16T23:26:07.761Z,97301.59
2022-10-16T23:28:34.339Z,97309.09
2022-10-16T23:31:02.949Z,97301.75
2022-10-16T23:33:31.465Z,97302.56
2022-10-16T23:35:57.931Z,97304.41
2022-10-16T23:38:24.372Z,97309.53
2022-10-16T23:40:50.814Z,97317.66
2022-10-16T23:43:17.213Z,97330.44
2022-10-16T23:45:43.647Z,97318.84
2022-10-16T23:48:10.137Z,97329.84
2022-10-16T23:50:36.595Z,97335.53
2022-10-16T23:53:06.645Z,97334.31
2022-10-16T23:55:36.445Z,97328.97
2022-10-16T23:58:03.379Z,97343.72
